createdAt,value
2023-05-18T00:00:14.726Z,5.83
2023-05-18T00:00:47.990Z,6.18
2023-05-18T00:01:20.708Z,6.05
2023-05-18T00:01:54.353Z,6.90
2023-05-18T00:02:26.887Z,5.95
2023-05-18T00:02:59.368Z,5.95
2023-05-18T00:03:33.962Z,6.13
2023-05-18T00:04:06.812Z,6.20
2023-05-18T00:04:39.303Z,6.00
2023-05-18T00:05:11.978Z,6.28
2023-05-18T00:05:44.292Z,5.77
2023-05-18T00:06:16.881Z,5.72
2023-05-18T00:06:49.316Z,6.40
2023-05-18T00:07:21.729Z,6.38
2023-05-18T00:07:54.159Z,6.57
2023-05-18T00:08:26.502Z,5.90
2023-05-18T00:08:58.812Z,6.50
2023-05-18T00:09:31.809Z,6.75
2023-05-18T00:10:04.359Z,6.63
2023-05-18T00:10:36.854Z,6.80
2023-05-18T00:11:09.326Z,6.13
2023-05-18T00:11:42.337Z,6.70
2023-05-18T00:12:14.723Z,6.40
2023-05-18T00:12:48.079Z,6.35
2023-05-18T00:13:20.769Z,6.60
2023-05-18T00:13:53.179Z,6.50
2023-05-18T00:14:25.816Z,6.70
2023-05-18T00:15:06.652Z,6.53
2023-05-18T00:15:39.209Z,6.85
2023-05-18T00:16:12.538Z,6.45
2023-05-18T00:16:45.169Z,6.67
2023-05-18T00:17:17.986Z,6.40
2023-05-18T00:17:50.860Z,6.20
2023-05-18T00:18:24.226Z,6.47
2023-05-18T00:18:56.831Z,6.50
2023-05-18T00:19:30.319Z,6.00
2023-05-18T00:20:05.325Z,6.60
2023-05-18T00:20:37.869Z,6.80
2023-05-18T00:21:10.607Z,6.60
2023-05-18T00:21:43.710Z,6.82
2023-05-18T00:22:18.971Z,6.73
2023-05-18T00:22:51.898Z,6.50
2023-05-18T00:23:25.154Z,6.65
2023-05-18T00:23:59.103Z,7.22
2023-05-18T00:24:31.546Z,6.50
2023-05-18T00:25:04.133Z,6.80
2023-05-18T00:25:36.687Z,6.68
2023-05-18T00:26:09.052Z,6.68
2023-05-18T00:26:43.032Z,7.05
2023-05-18T00:27:15.849Z,6.15
2023-05-18T00:27:50.291Z,7.77
2023-05-18T00:28:24.559Z,6.10
2023-05-18T00:28:56.853Z,6.38
2023-05-18T00:29:29.232Z,7.28
2023-05-18T00:30:01.776Z,7.10
2023-05-18T00:30:34.233Z,6.82
2023-05-18T00:31:07.567Z,6.88
2023-05-18T00:31:40.425Z,6.72
2023-05-18T00:32:13.077Z,7.00
2023-05-18T00:32:46.530Z,7.53
2023-05-18T00:33:19.146Z,7.17
2023-05-18T00:33:52.645Z,6.60
2023-05-18T00:34:24.977Z,7.43
2023-05-18T00:34:57.316Z,7.30
2023-05-18T00:35:30.139Z,7.38
2023-05-18T00:36:03.010Z,6.97
2023-05-18T00:36:36.330Z,7.38
2023-05-18T00:37:09.152Z,7.38
2023-05-18T00:37:41.783Z,6.93
2023-05-18T00:38:15.721Z,6.68
2023-05-18T00:38:48.606Z,6.93
2023-05-18T00:39:21.372Z,7.38
2023-05-18T00:39:53.876Z,7.45
2023-05-18T00:40:28.523Z,7.75
2023-05-18T00:41:00.863Z,7.65
2023-05-18T00:41:33.820Z,7.47
2023-05-18T00:42:06.401Z,7.25
2023-05-18T00:42:38.735Z,7.57
2023-05-18T00:43:11.340Z,7.53
2023-05-18T00:43:43.912Z,7.53
2023-05-18T00:44:16.851Z,7.17
2023-05-18T00:44:49.472Z,7.07
2023-05-18T00:45:21.870Z,7.15
2023-05-18T00:45:54.606Z,7.85
2023-05-18T00:46:28.447Z,7.63
2023-05-18T00:47:01.118Z,7.03
2023-05-18T00:47:33.636Z,7.95
2023-05-18T00:48:06.691Z,7.18
2023-05-18T00:48:39.074Z,7.60
2023-05-18T00:49:11.808Z,7.53
2023-05-18T00:49:44.312Z,7.57
2023-05-18T00:50:16.942Z,7.38
2023-05-18T00:50:49.401Z,7.10
2023-05-18T00:51:23.636Z,8.23
2023-05-18T00:51:57.324Z,8.20
2023-05-18T00:52:33.443Z,7.05
2023-05-18T00:53:06.183Z,7.80
2023-05-18T00:53:38.812Z,8.20
2023-05-18T00:54:11.244Z,7.40
2023-05-18T00:54:43.627Z,7.47
2023-05-18T00:55:16.051Z,7.50
2023-05-18T00:55:48.427Z,7.40
2023-05-18T00:56:24.165Z,7.30
2023-05-18T00:56:57.466Z,7.90
2023-05-18T00:57:29.913Z,7.80
2023-05-18T00:58:02.688Z,7.25
2023-05-18T00:58:35.333Z,7.90
2023-05-18T00:59:09.476Z,8.32
2023-05-18T00:59:42.208Z,7.38
2023-05-18T01:00:15.508Z,7.30
2023-05-18T01:00:48.137Z,8.10
2023-05-18T01:01:20.886Z,7.53
2023-05-18T01:01:53.562Z,7.43
2023-05-18T01:02:30.731Z,7.90
2023-05-18T01:03:04.044Z,8.35
2023-05-18T01:03:39.813Z,7.50
2023-05-18T01:04:14.832Z,7.78
2023-05-18T01:04:47.367Z,8.15
2023-05-18T01:05:20.390Z,8.15
2023-05-18T01:05:58.297Z,8.13
2023-05-18T01:06:36.430Z,7.67
2023-05-18T01:07:10.251Z,7.20
2023-05-18T01:07:43.518Z,8.18
2023-05-18T01:08:18.178Z,8.32
2023-05-18T01:08:50.521Z,8.07
2023-05-18T01:09:23.433Z,7.90
2023-05-18T01:09:55.873Z,8.18
2023-05-18T01:10:28.442Z,7.85
2023-05-18T01:11:01.453Z,8.57
2023-05-18T01:11:36.851Z,7.53
2023-05-18T01:12:17.653Z,7.97
2023-05-18T01:12:56.132Z,7.57
2023-05-18T01:13:36.240Z,7.78
2023-05-18T01:14:29.905Z,8.43
2023-05-18T01:15:10.696Z,7.75
2023-05-18T01:15:45.097Z,8.00
2023-05-18T01:16:22.183Z,7.97
2023-05-18T01:17:14.960Z,8.10
2023-05-18T01:18:06.952Z,8.00
2023-05-18T01:18:47.225Z,8.15
2023-05-18T01:19:38.054Z,7.83
2023-05-18T01:20:11.145Z,7.40
2023-05-18T01:20:46.384Z,7.68
2023-05-18T01:21:22.411Z,7.90
2023-05-18T01:22:04.799Z,8.07
2023-05-18T01:22:37.977Z,7.28
2023-05-18T01:23:31.077Z,8.02
2023-05-18T01:24:21.825Z,8.07
2023-05-18T01:24:58.263Z,8.45
2023-05-18T01:25:32.288Z,7.55
2023-05-18T01:26:13.437Z,8.10
2023-05-18T01:26:47.458Z,7.93
2023-05-18T01:27:21.815Z,8.50
2023-05-18T01:27:56.498Z,8.13
2023-05-18T01:28:32.575Z,7.63
2023-05-18T01:29:09.922Z,7.85
2023-05-18T01:29:43.024Z,7.65
2023-05-18T01:30:18.513Z,8.07
2023-05-18T01:30:51.244Z,8.38
2023-05-18T01:31:23.711Z,7.90
2023-05-18T01:31:56.100Z,7.60
2023-05-18T01:32:28.497Z,7.65
2023-05-18T01:33:07.033Z,7.90
2023-05-18T01:33:39.956Z,8.88
2023-05-18T01:34:12.299Z,8.27
2023-05-18T01:34:50.525Z,7.80
2023-05-18T01:35:22.860Z,8.30
2023-05-18T01:35:56.171Z,8.65
2023-05-18T01:36:29.875Z,8.18
2023-05-18T01:37:02.263Z,7.82
2023-05-18T01:37:34.822Z,8.20
2023-05-18T01:38:07.432Z,8.90
2023-05-18T01:38:42.422Z,8.55
2023-05-18T01:39:16.647Z,8.70
2023-05-18T01:39:49.392Z,7.80
2023-05-18T01:40:21.920Z,8.40
2023-05-18T01:41:03.376Z,8.82
2023-05-18T01:41:37.507Z,8.32
2023-05-18T01:42:15.715Z,8.38
2023-05-18T01:42:51.428Z,7.63
2023-05-18T01:43:27.066Z,8.30
2023-05-18T01:44:18.295Z,7.72
2023-05-18T01:45:03.575Z,8.25
2023-05-18T01:45:39.927Z,8.70
2023-05-18T01:46:18.142Z,8.32
2023-05-18T01:46:54.868Z,8.02
2023-05-18T01:47:29.150Z,7.50
2023-05-18T01:48:02.502Z,8.20
2023-05-18T01:48:38.175Z,8.48
2023-05-18T01:49:15.476Z,8.23
2023-05-18T01:50:00.736Z,8.40
2023-05-18T01:50:39.670Z,8.00
2023-05-18T01:51:14.061Z,8.43
2023-05-18T01:51:47.394Z,8.90
2023-05-18T01:52:25.054Z,8.18
2023-05-18T01:53:26.564Z,8.60
2023-05-18T01:54:08.846Z,7.97
2023-05-18T01:54:44.999Z,7.97
2023-05-18T01:55:18.318Z,8.20
2023-05-18T01:55:51.285Z,8.35
2023-05-18T01:56:23.753Z,8.87
2023-05-18T01:56:56.679Z,8.48
2023-05-18T01:57:31.463Z,8.10
2023-05-18T01:58:04.910Z,8.02
2023-05-18T01:58:38.622Z,7.93
2023-05-18T01:59:11.905Z,8.23
2023-05-18T01:59:44.989Z,8.27
2023-05-18T02:00:17.995Z,8.50
2023-05-18T02:00:52.085Z,9.15
2023-05-18T02:01:24.630Z,8.68
2023-05-18T02:02:01.229Z,7.83
2023-05-18T02:02:33.970Z,8.27
2023-05-18T02:03:06.480Z,8.43
2023-05-18T02:03:40.828Z,8.70
2023-05-18T02:04:13.257Z,8.93
2023-05-18T02:04:45.937Z,8.10
2023-05-18T02:05:18.324Z,8.95
2023-05-18T02:05:51.139Z,8.63
2023-05-18T02:06:23.753Z,9.02
2023-05-18T02:06:56.687Z,7.38
2023-05-18T02:07:29.162Z,8.47
2023-05-18T02:08:01.659Z,7.75
2023-05-18T02:08:34.072Z,8.40
2023-05-18T02:09:06.690Z,8.80
2023-05-18T02:09:39.062Z,8.70
2023-05-18T02:10:12.490Z,8.35
2023-05-18T02:10:44.837Z,8.18
2023-05-18T02:11:17.399Z,8.23
2023-05-18T02:11:49.872Z,8.65
2023-05-18T02:12:22.365Z,8.00
2023-05-18T02:12:54.960Z,8.57
2023-05-18T02:13:27.797Z,8.27
2023-05-18T02:14:01.097Z,8.38
2023-05-18T02:14:34.468Z,7.95
2023-05-18T02:15:07.468Z,8.40
2023-05-18T02:15:40.855Z,8.10
2023-05-18T02:16:15.037Z,8.00
2023-05-18T02:16:53.856Z,8.50
2023-05-18T02:17:26.819Z,8.50
2023-05-18T02:17:59.644Z,8.52
2023-05-18T02:18:34.463Z,7.80
2023-05-18T02:19:07.888Z,8.05
2023-05-18T02:19:40.836Z,8.88
2023-05-18T02:20:13.791Z,8.23
2023-05-18T02:20:49.378Z,8.25
2023-05-18T02:21:22.457Z,8.50
2023-05-18T02:21:54.985Z,8.43
2023-05-18T02:22:27.489Z,8.98
2023-05-18T02:23:00.448Z,8.02
2023-05-18T02:23:34.596Z,8.63
2023-05-18T02:24:07.700Z,8.43
2023-05-18T02:24:40.689Z,7.78
2023-05-18T02:25:13.123Z,8.05
2023-05-18T02:25:45.589Z,9.18
2023-05-18T02:26:19.049Z,8.60
2023-05-18T02:26:57.690Z,8.10
2023-05-18T02:27:30.246Z,7.80
2023-05-18T02:28:02.725Z,8.40
2023-05-18T02:28:35.145Z,8.25
2023-05-18T02:29:10.022Z,8.20
2023-05-18T02:29:42.408Z,8.50
2023-05-18T02:30:16.136Z,7.70
2023-05-18T02:30:48.968Z,9.38
2023-05-18T02:31:22.264Z,8.77
2023-05-18T02:31:54.771Z,8.82
2023-05-18T02:32:28.208Z,8.07
2023-05-18T02:33:01.086Z,8.82
2023-05-18T02:33:36.665Z,8.48
2023-05-18T02:34:09.360Z,7.93
2023-05-18T02:34:42.549Z,8.18
2023-05-18T02:35:16.055Z,8.43
2023-05-18T02:35:48.433Z,8.68
2023-05-18T02:36:22.744Z,8.63
2023-05-18T02:36:58.239Z,8.82
2023-05-18T02:37:34.699Z,8.40
2023-05-18T02:38:07.400Z,8.90
2023-05-18T02:38:41.217Z,8.57
2023-05-18T02:39:13.684Z,7.90
2023-05-18T02:39:46.134Z,8.27
2023-05-18T02:40:19.301Z,8.15
2023-05-18T02:40:51.633Z,9.03
2023-05-18T02:41:24.449Z,8.00
2023-05-18T02:41:56.807Z,8.05
2023-05-18T02:42:29.391Z,8.35
2023-05-18T02:43:01.779Z,8.68
2023-05-18T02:43:36.030Z,8.43
2023-05-18T02:44:08.389Z,8.75
2023-05-18T02:44:42.493Z,8.68
2023-05-18T02:45:17.565Z,8.70
2023-05-18T02:45:51.634Z,9.27
2023-05-18T02:46:24.979Z,8.17
2023-05-18T02:46:57.729Z,7.72
2023-05-18T02:47:30.816Z,8.65
2023-05-18T02:48:03.255Z,8.32
2023-05-18T02:48:36.257Z,8.63
2023-05-18T02:49:08.885Z,8.48
2023-05-18T02:49:41.553Z,7.35
2023-05-18T02:50:14.642Z,8.02
2023-05-18T02:50:49.509Z,9.52
2023-05-18T02:51:24.240Z,7.72
2023-05-18T02:51:57.152Z,8.77
2023-05-18T02:52:29.735Z,8.10
2023-05-18T02:53:02.150Z,8.05
2023-05-18T02:53:34.969Z,8.45
2023-05-18T02:54:14.332Z,8.45
2023-05-18T02:54:48.104Z,8.25
2023-05-18T02:55:26.525Z,8.70
2023-05-18T02:56:12.642Z,8.57
2023-05-18T02:56:59.028Z,7.78
2023-05-18T02:57:47.174Z,8.25
2023-05-18T02:58:26.337Z,8.60
2023-05-18T02:59:07.286Z,7.78
2023-05-18T02:59:43.870Z,7.50
2023-05-18T03:00:17.047Z,8.52
2023-05-18T03:00:53.119Z,7.78
2023-05-18T03:01:27.394Z,7.93
2023-05-18T03:02:00.509Z,8.35
2023-05-18T03:02:33.043Z,8.35
2023-05-18T03:03:05.816Z,9.25
2023-05-18T03:03:42.612Z,7.80
2023-05-18T03:04:17.669Z,8.73
2023-05-18T03:04:57.629Z,8.38
2023-05-18T03:05:30.714Z,8.38
2023-05-18T03:06:03.395Z,9.05
2023-05-18T03:06:36.287Z,8.80
2023-05-18T03:07:09.058Z,8.32
2023-05-18T03:07:42.420Z,8.75
2023-05-18T03:08:14.731Z,8.52
2023-05-18T03:08:49.333Z,8.48
2023-05-18T03:09:22.347Z,7.72
2023-05-18T03:09:57.404Z,8.13
2023-05-18T03:10:29.962Z,8.30
2023-05-18T03:11:02.505Z,8.45
2023-05-18T03:11:35.663Z,8.73
2023-05-18T03:12:08.276Z,8.18
2023-05-18T03:12:41.339Z,7.97
2023-05-18T03:13:14.051Z,8.65
2023-05-18T03:13:47.834Z,8.65
2023-05-18T03:14:20.822Z,8.45
2023-05-18T03:14:53.135Z,8.45
2023-05-18T03:15:25.506Z,8.80
2023-05-18T03:15:57.942Z,8.43
2023-05-18T03:16:30.674Z,8.68
2023-05-18T03:17:06.483Z,8.85
2023-05-18T03:17:41.362Z,9.07
2023-05-18T03:18:13.780Z,8.45
2023-05-18T03:18:47.278Z,8.65
2023-05-18T03:19:21.178Z,7.90
2023-05-18T03:19:53.548Z,9.00
2023-05-18T03:20:26.702Z,8.75
2023-05-18T03:21:02.321Z,8.70
2023-05-18T03:21:36.406Z,8.38
2023-05-18T03:22:09.215Z,9.10
2023-05-18T03:22:41.823Z,9.25
2023-05-18T03:23:14.375Z,8.80
2023-05-18T03:23:48.510Z,8.13
2023-05-18T03:24:22.154Z,8.90
2023-05-18T03:24:55.701Z,8.68
2023-05-18T03:25:28.661Z,8.80
2023-05-18T03:26:02.974Z,8.32
2023-05-18T03:26:36.948Z,8.60
2023-05-18T03:27:09.855Z,8.70
2023-05-18T03:27:42.279Z,8.80
2023-05-18T03:28:14.858Z,8.70
2023-05-18T03:28:47.513Z,7.90
2023-05-18T03:29:21.007Z,7.97
2023-05-18T03:29:54.491Z,8.82
2023-05-18T03:30:26.849Z,8.48
2023-05-18T03:30:59.829Z,9.30
2023-05-18T03:31:32.412Z,8.13
2023-05-18T03:32:06.724Z,6.77
2023-05-18T03:32:39.154Z,8.43
2023-05-18T03:33:12.477Z,8.95
2023-05-18T03:33:45.146Z,8.40
2023-05-18T03:34:17.519Z,7.93
2023-05-18T03:34:51.493Z,8.18
2023-05-18T03:35:26.129Z,8.65
2023-05-18T03:36:01.754Z,8.45
2023-05-18T03:36:35.942Z,8.10
2023-05-18T03:37:08.408Z,8.45
2023-05-18T03:37:41.077Z,8.87
2023-05-18T03:38:13.636Z,8.15
2023-05-18T03:38:50.626Z,8.65
2023-05-18T03:39:23.070Z,8.20
2023-05-18T03:39:59.495Z,9.07
2023-05-18T03:40:32.721Z,7.38
2023-05-18T03:41:05.217Z,8.15
2023-05-18T03:41:37.807Z,8.38
2023-05-18T03:42:10.161Z,9.05
2023-05-18T03:42:43.227Z,8.65
2023-05-18T03:43:15.676Z,9.27
2023-05-18T03:43:49.085Z,9.13
2023-05-18T03:44:22.613Z,8.88
2023-05-18T03:44:55.230Z,7.60
2023-05-18T03:45:27.914Z,9.18
2023-05-18T03:46:00.859Z,8.48
2023-05-18T03:46:33.890Z,9.15
2023-05-18T03:47:07.075Z,8.75
2023-05-18T03:47:39.917Z,9.13
2023-05-18T03:48:12.411Z,8.25
2023-05-18T03:48:45.140Z,8.43
2023-05-18T03:49:17.957Z,7.40
2023-05-18T03:49:50.424Z,8.68
2023-05-18T03:50:22.866Z,8.25
2023-05-18T03:50:55.437Z,8.90
2023-05-18T03:51:29.378Z,8.50
2023-05-18T03:52:03.219Z,8.23
2023-05-18T03:52:36.494Z,8.65
2023-05-18T03:53:10.293Z,8.77
2023-05-18T03:53:42.750Z,8.82
2023-05-18T03:54:15.173Z,8.87
2023-05-18T03:54:48.119Z,7.78
2023-05-18T03:55:21.767Z,8.70
2023-05-18T03:55:54.221Z,8.35
2023-05-18T03:56:27.018Z,8.55
2023-05-18T03:56:59.571Z,8.27
2023-05-18T03:57:32.045Z,8.82
2023-05-18T03:58:06.150Z,8.40
2023-05-18T03:58:38.553Z,8.55
2023-05-18T03:59:11.073Z,9.02
2023-05-18T03:59:44.213Z,8.43
2023-05-18T04:00:17.486Z,7.93
2023-05-18T04:00:49.924Z,8.75
2023-05-18T04:01:24.053Z,9.23
2023-05-18T04:01:57.160Z,8.80
2023-05-18T04:02:29.938Z,8.80
2023-05-18T04:03:03.733Z,8.82
2023-05-18T04:03:36.806Z,8.70
2023-05-18T04:04:09.617Z,9.18
2023-05-18T04:04:42.256Z,8.80
2023-05-18T04:05:14.672Z,8.27
2023-05-18T04:05:47.195Z,8.55
2023-05-18T04:06:22.793Z,9.40
2023-05-18T04:06:56.574Z,8.73
2023-05-18T04:07:30.104Z,8.60
2023-05-18T04:08:02.631Z,8.25
2023-05-18T04:08:37.097Z,8.38
2023-05-18T04:09:09.476Z,8.65
2023-05-18T04:09:41.856Z,7.82
2023-05-18T04:10:14.918Z,8.88
2023-05-18T04:10:48.525Z,9.07
2023-05-18T04:11:21.831Z,8.10
2023-05-18T04:11:54.472Z,8.48
2023-05-18T04:12:26.861Z,9.27
2023-05-18T04:12:59.294Z,9.00
2023-05-18T04:13:31.883Z,8.13
2023-05-18T04:14:04.513Z,8.85
2023-05-18T04:14:37.147Z,9.10
2023-05-18T04:15:09.819Z,8.75
2023-05-18T04:15:42.263Z,8.38
2023-05-18T04:16:14.705Z,8.77
2023-05-18T04:16:47.798Z,8.82
2023-05-18T04:17:23.404Z,8.30
2023-05-18T04:17:56.013Z,8.27
2023-05-18T04:18:30.559Z,9.15
2023-05-18T04:19:06.383Z,7.97
2023-05-18T04:19:40.856Z,8.57
2023-05-18T04:20:14.616Z,9.00
2023-05-18T04:20:47.430Z,8.48
2023-05-18T04:21:20.195Z,8.48
2023-05-18T04:21:52.864Z,8.47
2023-05-18T04:22:25.901Z,8.77
2023-05-18T04:22:58.310Z,8.95
2023-05-18T04:23:31.874Z,9.18
2023-05-18T04:24:07.984Z,8.63
2023-05-18T04:24:42.468Z,8.75
2023-05-18T04:25:16.153Z,7.90
2023-05-18T04:25:49.570Z,8.85
2023-05-18T04:26:22.370Z,7.57
2023-05-18T04:26:56.866Z,8.88
2023-05-18T04:27:30.252Z,9.03
2023-05-18T04:28:03.272Z,8.65
2023-05-18T04:28:37.886Z,9.50
2023-05-18T04:29:11.007Z,9.35
2023-05-18T04:29:44.330Z,9.90
2023-05-18T04:30:19.060Z,8.30
2023-05-18T04:30:51.948Z,8.68
2023-05-18T04:31:24.489Z,8.55
2023-05-18T04:32:02.490Z,9.82
2023-05-18T04:32:36.690Z,8.90
2023-05-18T04:33:09.143Z,9.37
2023-05-18T04:33:42.133Z,9.07
2023-05-18T04:34:14.708Z,9.70
2023-05-18T04:34:49.796Z,9.02
2023-05-18T04:35:22.686Z,8.00
2023-05-18T04:35:59.097Z,8.18
2023-05-18T04:36:31.669Z,8.50
2023-05-18T04:37:05.785Z,9.05
2023-05-18T04:37:41.301Z,9.35
2023-05-18T04:38:17.179Z,8.52
2023-05-18T04:38:51.135Z,9.27
2023-05-18T04:39:23.963Z,9.00
2023-05-18T04:39:56.588Z,8.73
2023-05-18T04:40:29.172Z,9.07
2023-05-18T04:41:05.525Z,7.75
2023-05-18T04:41:37.940Z,8.63
2023-05-18T04:42:10.972Z,9.35
2023-05-18T04:42:48.246Z,8.10
2023-05-18T04:43:28.508Z,8.50
2023-05-18T04:44:02.527Z,8.73
2023-05-18T04:44:35.207Z,8.80
2023-05-18T04:45:07.789Z,8.40
2023-05-18T04:45:40.503Z,7.68
2023-05-18T04:46:14.260Z,8.85
2023-05-18T04:46:47.590Z,9.00
2023-05-18T04:47:24.286Z,9.20
2023-05-18T04:47:56.798Z,9.50
2023-05-18T04:48:31.074Z,8.98
2023-05-18T04:49:03.915Z,8.90
2023-05-18T04:49:39.554Z,9.10
2023-05-18T04:50:13.589Z,9.23
2023-05-18T04:50:46.357Z,8.95
2023-05-18T04:51:21.909Z,8.73
2023-05-18T04:51:59.190Z,8.77
2023-05-18T04:52:32.502Z,9.02
2023-05-18T04:53:07.901Z,9.40
2023-05-18T04:53:40.644Z,9.05
2023-05-18T04:54:13.373Z,8.20
2023-05-18T04:54:45.770Z,8.70
2023-05-18T04:55:44.616Z,8.70
2023-05-18T04:56:18.038Z,8.93
2023-05-18T04:56:51.953Z,9.30
2023-05-18T04:57:24.481Z,8.07
2023-05-18T04:57:57.661Z,9.13
2023-05-18T04:58:30.858Z,8.90
2023-05-18T04:59:03.292Z,9.10
2023-05-18T04:59:37.457Z,9.23
2023-05-18T05:00:13.021Z,8.90
2023-05-18T05:00:45.399Z,8.55
2023-05-18T05:01:18.003Z,9.32
2023-05-18T05:01:50.454Z,9.93
2023-05-18T05:02:23.037Z,8.32
2023-05-18T05:02:56.334Z,8.60
2023-05-18T05:03:29.030Z,8.25
2023-05-18T05:04:01.768Z,9.65
2023-05-18T05:04:34.177Z,8.45
2023-05-18T05:05:08.772Z,8.60
2023-05-18T05:05:41.158Z,9.10
2023-05-18T05:06:13.460Z,8.85
2023-05-18T05:06:46.222Z,8.73
2023-05-18T05:07:18.674Z,9.30
2023-05-18T05:07:53.088Z,7.85
2023-05-18T05:08:25.604Z,9.30
2023-05-18T05:08:58.243Z,9.02
2023-05-18T05:09:30.752Z,8.23
2023-05-18T05:10:03.824Z,8.57
2023-05-18T05:10:36.319Z,9.30
2023-05-18T05:11:08.632Z,8.98
2023-05-18T05:11:41.763Z,9.18
2023-05-18T05:12:14.205Z,8.95
2023-05-18T05:12:48.688Z,8.73
2023-05-18T05:13:21.937Z,8.57
2023-05-18T05:13:54.429Z,9.90
2023-05-18T05:14:26.820Z,9.63
2023-05-18T05:14:59.222Z,9.50
2023-05-18T05:15:31.968Z,9.25
2023-05-18T05:16:04.760Z,9.70
2023-05-18T05:16:37.290Z,9.50
2023-05-18T05:17:09.825Z,9.15
2023-05-18T05:17:42.379Z,9.43
2023-05-18T05:18:14.836Z,9.93
2023-05-18T05:18:47.608Z,9.65
2023-05-18T05:19:21.199Z,8.90
2023-05-18T05:19:53.643Z,9.32
2023-05-18T05:20:26.068Z,8.93
2023-05-18T05:20:59.688Z,8.50
2023-05-18T05:21:32.597Z,9.20
2023-05-18T05:22:05.409Z,8.88
2023-05-18T05:22:38.443Z,9.63
2023-05-18T05:23:14.117Z,9.05
2023-05-18T05:23:47.983Z,8.93
2023-05-18T05:24:20.392Z,8.95
2023-05-18T05:24:52.780Z,9.30
2023-05-18T05:25:25.922Z,9.93
2023-05-18T05:25:58.596Z,8.77
2023-05-18T05:26:32.545Z,8.98
2023-05-18T05:27:04.953Z,9.10
2023-05-18T05:27:37.502Z,10.07
2023-05-18T05:28:09.914Z,9.18
2023-05-18T05:28:42.449Z,8.07
2023-05-18T05:29:14.814Z,8.90
2023-05-18T05:29:47.352Z,8.98
2023-05-18T05:30:20.133Z,8.68
2023-05-18T05:30:52.503Z,8.93
2023-05-18T05:31:25.685Z,8.73
2023-05-18T05:31:58.597Z,8.80
2023-05-18T05:32:31.143Z,8.70
2023-05-18T05:33:03.708Z,8.82
2023-05-18T05:33:36.295Z,8.77
2023-05-18T05:34:08.791Z,8.82
2023-05-18T05:34:41.491Z,8.73
2023-05-18T05:35:14.244Z,8.80
2023-05-18T05:35:47.226Z,9.27
2023-05-18T05:36:19.871Z,9.77
2023-05-18T05:36:52.235Z,9.63
2023-05-18T05:37:24.615Z,8.82
2023-05-18T05:37:57.045Z,9.32
2023-05-18T05:38:29.554Z,9.02
2023-05-18T05:39:02.678Z,9.25
2023-05-18T05:39:35.128Z,9.02
2023-05-18T05:40:08.010Z,8.90
2023-05-18T05:40:45.744Z,8.85
2023-05-18T05:41:18.404Z,7.95
2023-05-18T05:41:50.850Z,9.40
2023-05-18T05:42:23.409Z,8.88
2023-05-18T05:42:56.206Z,8.15
2023-05-18T05:43:29.355Z,9.05
2023-05-18T05:44:01.774Z,8.88
2023-05-18T05:44:34.364Z,9.07
2023-05-18T05:45:07.298Z,9.27
2023-05-18T05:45:47.059Z,9.03
2023-05-18T05:46:20.396Z,8.38
2023-05-18T05:46:52.919Z,9.60
2023-05-18T05:47:26.102Z,8.90
2023-05-18T05:47:58.791Z,8.60
2023-05-18T05:48:31.421Z,8.80
2023-05-18T05:49:04.346Z,9.43
2023-05-18T05:49:36.893Z,9.30
2023-05-18T05:50:09.748Z,9.32
2023-05-18T05:50:42.836Z,8.90
2023-05-18T05:51:15.342Z,9.47
2023-05-18T05:51:47.924Z,8.95
2023-05-18T05:52:20.254Z,9.95
2023-05-18T05:52:52.877Z,9.40
2023-05-18T05:53:26.296Z,8.98
2023-05-18T05:53:58.900Z,9.57
2023-05-18T05:54:31.569Z,8.60
2023-05-18T05:55:04.457Z,8.57
2023-05-18T05:55:41.391Z,8.88
2023-05-18T05:56:17.838Z,8.93
2023-05-18T05:56:50.214Z,9.30
2023-05-18T05:57:24.043Z,8.93
2023-05-18T05:57:56.401Z,8.45
2023-05-18T05:58:28.766Z,9.50
2023-05-18T05:59:04.433Z,8.55
2023-05-18T05:59:36.959Z,8.57
2023-05-18T06:00:10.897Z,9.77
2023-05-18T06:00:58.288Z,8.45
2023-05-18T06:01:30.730Z,9.95
2023-05-18T06:02:03.294Z,8.57
2023-05-18T06:02:35.981Z,8.50
2023-05-18T06:03:08.578Z,8.45
2023-05-18T06:03:45.681Z,9.25
2023-05-18T06:04:19.236Z,8.57
2023-05-18T06:04:51.790Z,8.90
2023-05-18T06:05:24.267Z,8.98
2023-05-18T06:05:57.793Z,9.30
2023-05-18T06:06:30.353Z,8.98
2023-05-18T06:07:02.683Z,8.90
2023-05-18T06:07:36.385Z,8.85
2023-05-18T06:08:09.416Z,9.00
2023-05-18T06:08:41.842Z,9.00
2023-05-18T06:09:14.563Z,8.73
2023-05-18T06:09:46.967Z,8.90
2023-05-18T06:10:19.556Z,8.80
2023-05-18T06:10:52.275Z,7.68
2023-05-18T06:11:25.156Z,8.60
2023-05-18T06:11:58.250Z,9.07
2023-05-18T06:12:32.705Z,9.07
2023-05-18T06:13:05.331Z,9.18
2023-05-18T06:13:45.541Z,9.17
2023-05-18T06:14:18.627Z,7.95
2023-05-18T06:14:57.518Z,8.25
2023-05-18T06:15:30.362Z,9.18
2023-05-18T06:16:02.986Z,8.73
2023-05-18T06:16:35.564Z,8.73
2023-05-18T06:17:08.196Z,8.80
2023-05-18T06:17:40.737Z,7.72
2023-05-18T06:18:13.826Z,8.65
2023-05-18T06:18:46.683Z,8.10
2023-05-18T06:19:19.788Z,7.93
2023-05-18T06:19:52.379Z,7.47
2023-05-18T06:20:24.763Z,8.98
2023-05-18T06:20:57.674Z,8.75
2023-05-18T06:21:30.041Z,8.48
2023-05-18T06:22:03.945Z,8.23
2023-05-18T06:22:44.835Z,8.93
2023-05-18T06:23:28.666Z,8.88
2023-05-18T06:24:07.111Z,8.40
2023-05-18T06:24:57.447Z,8.73
2023-05-18T06:26:02.477Z,8.70
2023-05-18T06:26:55.595Z,8.63
2023-05-18T06:27:46.696Z,9.07
2023-05-18T06:28:41.072Z,8.95
2023-05-18T06:29:33.999Z,9.00
2023-05-18T06:30:13.620Z,8.77
2023-05-18T06:31:04.406Z,7.88
2023-05-18T06:31:51.595Z,6.90
2023-05-18T06:32:28.684Z,8.88
2023-05-18T06:33:02.477Z,8.85
2023-05-18T06:33:34.946Z,8.20
2023-05-18T06:34:07.988Z,7.88
2023-05-18T06:34:41.063Z,8.35
2023-05-18T06:35:13.839Z,8.88
2023-05-18T06:35:46.241Z,8.95
2023-05-18T06:36:18.710Z,8.48
2023-05-18T06:36:51.357Z,8.93
2023-05-18T06:37:23.830Z,8.75
2023-05-18T06:37:56.345Z,8.52
2023-05-18T06:38:28.686Z,8.40
2023-05-18T06:39:01.006Z,8.47
2023-05-18T06:39:33.437Z,8.85
2023-05-18T06:40:07.743Z,8.25
2023-05-18T06:40:41.072Z,8.93
2023-05-18T06:41:13.512Z,8.48
2023-05-18T06:41:45.989Z,7.05
2023-05-18T06:42:26.468Z,7.82
2023-05-18T06:43:08.520Z,8.43
2023-05-18T06:43:51.385Z,8.00
2023-05-18T06:44:36.185Z,7.30
2023-05-18T06:45:22.716Z,8.43
2023-05-18T06:45:58.813Z,8.27
2023-05-18T06:46:41.808Z,8.43
2023-05-18T06:47:23.152Z,8.73
2023-05-18T06:47:55.750Z,7.28
2023-05-18T06:48:28.672Z,8.13
2023-05-18T06:49:01.478Z,7.78
2023-05-18T06:49:33.799Z,7.45
2023-05-18T06:50:06.376Z,7.70
2023-05-18T06:50:38.809Z,7.97
2023-05-18T06:51:11.779Z,7.33
2023-05-18T06:51:44.362Z,7.90
2023-05-18T06:52:16.925Z,7.75
2023-05-18T06:52:50.349Z,7.97
2023-05-18T06:53:25.860Z,8.38
2023-05-18T06:53:58.170Z,8.18
2023-05-18T06:54:31.765Z,8.65
2023-05-18T06:55:05.653Z,8.52
2023-05-18T06:55:38.164Z,8.13
2023-05-18T06:56:13.322Z,7.88
2023-05-18T06:56:47.723Z,8.17
2023-05-18T06:57:21.468Z,7.55
2023-05-18T06:57:57.051Z,7.97
2023-05-18T06:58:29.580Z,8.05
2023-05-18T06:59:04.276Z,7.60
2023-05-18T06:59:36.778Z,7.93
2023-05-18T07:00:12.607Z,7.78
2023-05-18T07:00:45.582Z,7.43
2023-05-18T07:01:18.262Z,7.90
2023-05-18T07:01:51.502Z,6.32
2023-05-18T07:02:24.043Z,7.33
2023-05-18T07:02:57.093Z,7.53
2023-05-18T07:03:30.192Z,7.85
2023-05-18T07:04:02.897Z,8.05
2023-05-18T07:04:35.371Z,7.60
2023-05-18T07:05:09.798Z,7.55
2023-05-18T07:05:42.381Z,7.82
2023-05-18T07:06:15.202Z,7.18
2023-05-18T07:06:47.569Z,7.78
2023-05-18T07:07:20.458Z,7.45
2023-05-18T07:07:52.814Z,7.90
2023-05-18T07:08:25.792Z,7.68
2023-05-18T07:08:58.321Z,7.50
2023-05-18T07:09:30.656Z,7.07
2023-05-18T07:10:04.059Z,7.32
2023-05-18T07:10:36.464Z,7.22
2023-05-18T07:11:09.703Z,7.78
2023-05-18T07:11:42.199Z,7.63
2023-05-18T07:12:14.545Z,7.82
2023-05-18T07:12:46.889Z,7.53
2023-05-18T07:13:19.768Z,7.13
2023-05-18T07:13:52.172Z,6.72
2023-05-18T07:14:24.506Z,7.10
2023-05-18T07:14:56.879Z,7.57
2023-05-18T07:15:29.598Z,7.38
2023-05-18T07:16:02.910Z,7.05
2023-05-18T07:16:35.819Z,6.35
2023-05-18T07:17:08.521Z,7.03
2023-05-18T07:17:41.145Z,6.70
2023-05-18T07:18:13.534Z,6.55
2023-05-18T07:18:46.129Z,6.70
2023-05-18T07:19:18.870Z,6.78
2023-05-18T07:19:51.203Z,6.65
2023-05-18T07:20:25.975Z,7.28
2023-05-18T07:20:59.011Z,7.38
2023-05-18T07:21:31.649Z,6.28
2023-05-18T07:22:04.926Z,6.43
2023-05-18T07:22:37.234Z,6.75
2023-05-18T07:23:09.661Z,7.07
2023-05-18T07:23:42.089Z,6.60
2023-05-18T07:24:14.401Z,6.17
2023-05-18T07:24:46.797Z,5.65
2023-05-18T07:25:19.200Z,6.45
2023-05-18T07:25:52.041Z,6.85
2023-05-18T07:26:24.798Z,6.32
2023-05-18T07:26:59.407Z,5.78
2023-05-18T07:27:34.449Z,6.53
2023-05-18T07:28:07.025Z,5.93
2023-05-18T07:28:39.556Z,5.93
2023-05-18T07:29:12.124Z,6.15
2023-05-18T07:29:44.714Z,6.23
2023-05-18T07:30:17.330Z,5.97
2023-05-18T07:30:49.907Z,6.35
2023-05-18T07:31:22.814Z,6.10
2023-05-18T07:31:55.420Z,6.32
2023-05-18T07:32:27.803Z,5.80
2023-05-18T07:33:01.098Z,6.15
2023-05-18T07:33:34.460Z,5.40
2023-05-18T07:34:07.521Z,6.10